Time;durP1;ratioP1;P1;durP2;ratioP2;P2;SDS_P1;SDS_P2;PMS_P1;PMS_P2;Temp;Humidity;BMP_temperature;BMP_pressure;BME280_temperature;BME280_humidity;BME280_pressure;Samples;Min_cycle;Max_cycle;Signal;HPM_P1;HPM_P2
2022/03/17 00:00:00;;;;;;;11.20;7.20;;;-3.10;90.50;;;;;;5078898;28;20035;-89
2022/03/17 00:02:26;;;;;;;11.60;7.80;;;-3.10;90.10;;;;;;5078262;28;20028;-89
2022/03/17 00:04:52;;;;;;;12.75;7.80;;;-3.10;90.00;;;;;;5078204;28;20035;-89
2022/03/17 00:07:18;;;;;;;13.25;7.20;;;-3.20;89.60;;;;;;5095912;28;20023;-90
2022/03/17 00:09:44;;;;;;;12.07;7.30;;;-3.20;89.60;;;;;;5077955;28;20044;-90
2022/03/17 00:12:10;;;;;;;11.32;7.05;;;-3.20;89.60;;;;;;5077466;28;20020;-89
2022/03/17 00:14:36;;;;;;;15.05;7.47;;;-3.20;89.30;;;;;;5077711;28;20032;-89
2022/03/17 00:17:02;;;;;;;11.45;6.82;;;-3.20;89.00;;;;;;5077651;28;20459;-89
2022/03/17 00:19:28;;;;;;;11.60;6.47;;;-3.30;88.70;;;;;;5077862;28;20031;-89
2022/03/17 00:21:54;;;;;;;10.30;6.57;;;-3.20;88.60;;;;;;5077660;28;20168;-90
2022/03/17 00:24:20;;;;;;;8.88;6.10;;;-3.30;87.90;;;;;;5076767;28;20111;-90
2022/03/17 00:26:45;;;;;;;10.65;6.40;;;-3.30;86.40;;;;;;5077287;28;20501;-89
2022/03/17 00:29:11;;;;;;;10.48;6.45;;;-3.20;84.90;;;;;;5077330;28;20024;-89
2022/03/17 00:31:38;;;;;;;8.07;5.68;;;-3.20;85.70;;;;;;5077234;28;20016;-89
2022/03/17 00:34:05;;;;;;;9.75;6.60;;;-3.30;85.90;;;;;;5077266;28;20359;-89
2022/03/17 00:36:33;;;;;;;11.70;6.88;;;-3.30;85.30;;;;;;5077224;28;20024;-90
2022/03/17 00:38:58;;;;;;;16.15;7.20;;;-3.30;86.00;;;;;;5077196;28;20024;-89
2022/03/17 00:41:24;;;;;;;11.57;6.80;;;-3.30;85.70;;;;;;5077434;28;20024;-89
2022/03/17 00:43:50;;;;;;;12.13;6.95;;;-3.30;86.30;;;;;;5076930;28;20028;-89
2022/03/17 00:46:15;;;;;;;12.25;6.90;;;-3.30;86.00;;;;;;5077019;28;20363;-89
2022/03/17 00:48:41;;;;;;;11.00;6.63;;;-3.30;85.70;;;;;;5076867;28;20019;-89
2022/03/17 00:51:06;;;;;;;9.80;6.38;;;-3.40;84.60;;;;;;5077049;28;20059;-89
2022/03/17 00:53:32;;;;;;;9.80;6.57;;;-3.30;84.30;;;;;;5077261;28;20170;-89
2022/03/17 00:55:57;;;;;;;10.02;6.03;;;-3.40;84.70;;;;;;5077072;28;20497;-89
2022/03/17 00:58:23;;;;;;;9.85;6.30;;;-3.40;83.90;;;;;;5077124;28;20032;-89
2022/03/17 01:00:49;;;;;;;10.88;6.72;;;-3.40;82.60;;;;;;5077067;28;20039;-89
2022/03/17 01:03:14;;;;;;;10.88;6.93;;;-3.40;82.20;;;;;;5077034;28;20031;-89
2022/03/17 01:05:41;;;;;;;9.07;6.05;;;-3.40;82.70;;;;;;5095077;28;20097;-90
2022/03/17 01:08:07;;;;;;;9.05;5.90;;;-3.50;83.60;;;;;;5076373;28;20393;-89
2022/03/17 01:10:33;;;;;;;14.38;6.57;;;-3.50;83.20;;;;;;5076885;28;20031;-89
2022/03/17 01:13:01;;;;;;;11.13;6.78;;;-3.50;83.10;;;;;;5076800;28;20027;-89
2022/03/17 01:15:29;;;;;;;12.25;6.85;;;-3.50;83.50;;;;;;5076771;28;20111;-88
2022/03/17 01:17:55;;;;;;;12.18;6.93;;;-3.50;82.90;;;;;;5077299;28;20063;-89
2022/03/17 01:20:20;;;;;;;9.45;6.43;;;-3.50;83.50;;;;;;5076952;28;20431;-90
2022/03/17 01:22:47;;;;;;;10.32;6.63;;;-3.50;83.20;;;;;;5076604;28;20052;-89
2022/03/17 01:25:13;;;;;;;11.98;6.97;;;-3.50;83.10;;;;;;5076664;28;20020;-89
2022/03/17 01:27:39;;;;;;;10.55;6.65;;;-3.50;84.50;;;;;;5076670;28;20035;-89
2022/03/17 01:30:09;;;;;;;12.02;7.95;;;-3.60;85.50;;;;;;5076729;28;20024;-90
2022/03/17 01:32:37;;;;;;;11.07;8.02;;;-3.60;86.20;;;;;;5076518;28;20391;-89
2022/03/17 01:35:05;;;;;;;11.98;7.55;;;-3.60;86.50;;;;;;5076593;28;20486;-90
2022/03/17 01:37:30;;;;;;;15.40;8.05;;;-3.60;86.50;;;;;;5079986;28;20028;-89
2022/03/17 01:39:56;;;;;;;10.93;8.10;;;-3.50;86.20;;;;;;5080968;28;20031;-89
2022/03/17 01:42:22;;;;;;;12.85;8.25;;;-3.60;86.80;;;;;;5080512;28;20063;-89
2022/03/17 01:44:48;;;;;;;14.35;8.18;;;-3.60;86.50;;;;;;5080649;28;20020;-90
2022/03/17 01:47:28;;;;;;;11.93;7.55;;;-3.60;86.30;;;;;;5080673;28;20394;-90
2022/03/17 01:50:06;;;;;;;14.15;7.57;;;-3.60;85.90;;;;;;5080486;28;20032;-89
2022/03/17 01:52:32;;;;;;;14.60;6.85;;;-3.60;85.70;;;;;;5080604;28;20039;-89
2022/03/17 01:54:58;;;;;;;13.45;7.20;;;-3.60;84.80;;;;;;5080357;28;20028;-89
2022/03/17 01:57:24;;;;;;;17.60;7.75;;;-3.60;85.40;;;;;;5080258;28;20030;-89
2022/03/17 01:59:51;;;;;;;11.00;7.05;;;-3.60;85.50;;;;;;5080657;28;20036;-89
2022/03/17 02:02:17;;;;;;;13.48;7.25;;;-3.60;86.00;;;;;;5080397;28;20028;-89
2022/03/17 02:04:43;;;;;;;12.75;7.47;;;-3.70;85.70;;;;;;5079899;28;20035;-89
2022/03/17 02:07:11;;;;;;;13.18;7.38;;;-3.70;86.10;;;;;;5080009;28;20123;-89
2022/03/17 02:09:38;;;;;;;11.20;7.22;;;-3.70;85.80;;;;;;5080034;28;20040;-90
2022/03/17 02:14:50;;;;;;;11.20;7.13;;;-3.70;85.40;;;;;;5098510;28;20531;-89
2022/03/17 02:17:16;;;;;;;11.95;7.60;;;-3.70;86.70;;;;;;5080159;28;20074;-89
2022/03/17 02:19:42;;;;;;;10.80;6.90;;;-3.70;87.00;;;;;;5080060;28;20386;-89
2022/03/17 02:22:11;;;;;;;11.35;6.68;;;-3.70;85.90;;;;;;5080431;28;20436;-88
2022/03/17 02:27:21;;;;;;;11.70;7.43;;;-3.70;85.00;;;;;;5098064;28;20501;-89
2022/03/17 02:29:47;;;;;;;9.55;6.15;;;-3.80;85.00;;;;;;5079514;28;20387;-89
2022/03/17 02:32:14;;;;;;;11.88;6.80;;;-3.80;84.00;;;;;;5079777;28;20020;-90
2022/03/17 02:34:40;;;;;;;10.55;6.60;;;-3.80;84.80;;;;;;5080096;28;20024;-89
2022/03/17 02:37:05;;;;;;;9.68;6.43;;;-3.80;84.40;;;;;;5079719;28;20024;-89
2022/03/17 02:39:31;;;;;;;10.93;6.47;;;-3.80;84.50;;;;;;5079728;28;20032;-89
2022/03/17 02:41:56;;;;;;;12.27;6.65;;;-3.80;84.50;;;;;;5079715;28;20024;-89
2022/03/17 02:44:22;;;;;;;10.30;6.40;;;-3.80;84.50;;;;;;5079616;28;20028;-89
2022/03/17 02:46:48;;;;;;;9.57;6.20;;;-3.70;85.20;;;;;;5079476;28;20119;-89
2022/03/17 02:49:15;;;;;;;11.85;6.80;;;-3.80;84.30;;;;;;5077990;28;20486;-89
2022/03/17 02:51:42;;;;;;;11.18;6.90;;;-3.80;85.30;;;;;;5079605;28;20382;-89
2022/03/17 02:54:08;;;;;;;9.20;6.25;;;-3.80;85.40;;;;;;5079614;28;20069;-89
2022/03/17 02:56:34;;;;;;;11.38;7.20;;;-3.80;85.30;;;;;;5079600;28;20020;-88
2022/03/17 02:58:59;;;;;;;9.00;6.53;;;-3.80;85.60;;;;;;5079155;28;20035;-89
2022/03/17 03:01:25;;;;;;;9.82;6.28;;;-3.80;85.20;;;;;;5079130;28;20481;-89
2022/03/17 03:03:50;;;;;;;10.05;6.80;;;-3.80;85.70;;;;;;5078977;28;20119;-89
2022/03/17 03:06:16;;;;;;;11.82;7.13;;;-3.80;85.50;;;;;;5079021;28;20028;-89
2022/03/17 03:08:42;;;;;;;11.52;7.18;;;-3.80;86.30;;;;;;5078848;28;20044;-89
2022/03/17 03:11:07;;;;;;;11.50;7.53;;;-3.80;86.80;;;;;;5078923;28;20382;-89
2022/03/17 03:13:33;;;;;;;13.57;8.00;;;-3.80;87.70;;;;;;5078879;28;20110;-89
2022/03/17 03:15:58;;;;;;;12.32;7.07;;;-3.90;88.00;;;;;;5078913;28;20074;-90
2022/03/17 03:18:24;;;;;;;15.25;7.65;;;-3.90;87.70;;;;;;5078950;28;20039;-90
2022/03/17 03:20:50;;;;;;;9.60;6.97;;;-3.90;88.20;;;;;;5078769;28;20028;-89
2022/03/17 03:23:16;;;;;;;10.45;6.53;;;-3.90;88.40;;;;;;5079081;28;20432;-90
2022/03/17 03:25:41;;;;;;;9.85;6.70;;;-3.90;87.80;;;;;;5078715;28;20020;-90
2022/03/17 03:28:09;;;;;;;11.63;7.03;;;-3.90;87.00;;;;;;5078559;28;20055;-89
2022/03/17 03:30:36;;;;;;;12.18;7.63;;;-3.90;87.50;;;;;;5096581;28;20111;-89
2022/03/17 03:33:03;;;;;;;13.88;7.70;;;-3.90;87.30;;;;;;5078361;28;20024;-89
2022/03/17 03:38:13;;;;;;;11.40;7.22;;;-3.90;87.50;;;;;;5096779;28;20081;-88
2022/03/17 03:40:38;;;;;;;12.48;7.20;;;-3.90;88.00;;;;;;5078331;28;20024;-89
2022/03/17 03:43:04;;;;;;;12.20;7.45;;;-3.90;88.50;;;;;;5078107;28;20024;-89
2022/03/17 03:45:30;;;;;;;12.60;7.18;;;-3.90;89.10;;;;;;5078296;28;20056;-89
2022/03/17 03:47:55;;;;;;;20.13;7.88;;;-3.90;88.90;;;;;;5078010;28;20119;-89
2022/03/17 03:50:21;;;;;;;13.55;7.38;;;-4.00;89.20;;;;;;5078269;28;20103;-89
2022/03/17 03:52:47;;;;;;;13.90;7.80;;;-4.00;90.00;;;;;;5078157;28;20475;-89
2022/03/17 03:55:13;;;;;;;13.38;7.28;;;-4.00;90.00;;;;;;5078119;28;20097;-89
2022/03/17 03:57:38;;;;;;;19.67;7.53;;;-4.00;89.40;;;;;;5078865;28;20060;-90
2022/03/17 04:02:51;;;;;;;12.30;7.88;;;-4.10;90.10;;;;;;5096417;28;20081;-89
2022/03/17 04:05:18;;;;;;;13.07;8.30;;;-4.10;90.00;;;;;;5077798;28;20115;-89
2022/03/17 04:07:44;;;;;;;12.20;7.88;;;-4.10;90.10;;;;;;5077709;28;20024;-89
2022/03/17 04:10:09;;;;;;;11.55;7.15;;;-4.10;90.00;;;;;;5077633;28;20383;-89
2022/03/17 04:12:35;;;;;;;10.00;7.28;;;-4.10;90.30;;;;;;5078077;28;20020;-89
2022/03/17 04:15:00;;;;;;;12.75;7.03;;;-4.10;90.20;;;;;;5077771;28;20048;-89
2022/03/17 04:17:26;;;;;;;16.20;7.57;;;-4.10;90.40;;;;;;5077769;28;20024;-89
2022/03/17 04:19:52;;;;;;;12.38;7.88;;;-4.10;90.30;;;;;;5077451;28;20024;-89
2022/03/17 04:22:17;;;;;;;13.45;8.13;;;-4.20;90.10;;;;;;5095558;28;20221;-90
2022/03/17 04:24:43;;;;;;;13.25;7.88;;;-4.20;90.10;;;;;;5077528;28;20031;-89
2022/03/17 04:27:09;;;;;;;15.35;8.30;;;-4.20;90.20;;;;;;5077524;28;20549;-89
2022/03/17 04:29:34;;;;;;;13.80;8.77;;;-4.20;90.30;;;;;;5077393;28;20032;-89
2022/03/17 04:32:00;;;;;;;14.05;7.88;;;-4.10;90.50;;;;;;5077480;28;20024;-89
2022/03/17 04:34:25;;;;;;;13.18;8.07;;;-4.10;90.40;;;;;;5076921;28;20062;-90
2022/03/17 04:36:51;;;;;;;12.25;7.95;;;-4.10;90.40;;;;;;5077131;28;20015;-89
2022/03/17 04:39:17;;;;;;;15.23;8.35;;;-4.10;90.60;;;;;;5077285;28;20089;-89
2022/03/17 04:41:43;;;;;;;14.07;8.45;;;-4.10;90.50;;;;;;5076982;28;20024;-89
2022/03/17 04:44:09;;;;;;;16.98;8.75;;;-4.10;90.50;;;;;;5095436;28;20032;-90
2022/03/17 04:46:35;;;;;;;12.82;8.55;;;-4.10;90.50;;;;;;5077171;28;20051;-89
2022/03/17 04:49:02;;;;;;;14.52;8.25;;;-4.10;90.50;;;;;;5076828;28;20172;-89
2022/03/17 04:51:28;;;;;;;15.02;8.90;;;-4.10;90.50;;;;;;5077117;28;20020;-89
2022/03/17 04:53:53;;;;;;;13.48;8.15;;;-4.00;90.60;;;;;;5077819;28;20024;-89
2022/03/17 04:56:20;;;;;;;16.20;9.52;;;-4.10;90.50;;;;;;5077083;28;20016;-89
2022/03/17 04:58:45;;;;;;;17.13;8.95;;;-4.00;90.80;;;;;;5076931;28;20422;-90
2022/03/17 05:01:13;;;;;;;20.80;9.60;;;-4.00;90.70;;;;;;5076960;28;20053;-91
2022/03/17 05:03:39;;;;;;;25.63;12.20;;;-4.00;90.60;;;;;;5076735;28;20024;-89
2022/03/17 05:06:05;;;;;;;36.15;15.73;;;-4.00;90.50;;;;;;5076809;28;20103;-89
2022/03/17 05:08:37;;;;;;;23.77;12.85;;;-4.00;90.40;;;;;;5073111;28;20049;-90
2022/03/17 05:11:03;;;;;;;19.65;12.18;;;-4.00;90.20;;;;;;5072786;28;20467;-90
2022/03/17 05:13:29;;;;;;;24.38;12.32;;;-4.00;90.40;;;;;;5073294;28;20024;-89
2022/03/17 05:15:55;;;;;;;17.70;10.63;;;-3.90;90.40;;;;;;5073485;28;20375;-90
2022/03/17 05:18:21;;;;;;;20.02;10.07;;;-3.80;90.40;;;;;;5073372;28;20116;-90
2022/03/17 05:20:47;;;;;;;21.45;11.15;;;-3.70;89.70;;;;;;5074501;28;20039;-89
2022/03/17 05:23:18;;;;;;;19.65;11.20;;;-3.70;89.70;;;;;;5073077;28;20032;-90
2022/03/17 05:25:45;;;;;;;17.50;10.38;;;-3.60;90.10;;;;;;5073067;28;20078;-90
2022/03/17 05:28:12;;;;;;;16.08;10.18;;;-3.50;90.10;;;;;;5074228;28;20028;-88
2022/03/17 05:30:39;;;;;;;16.88;9.27;;;-3.50;89.20;;;;;;5073392;28;20020;-90
2022/03/17 05:33:06;;;;;;;16.33;9.15;;;-3.40;89.10;;;;;;5072968;28;20124;-90
2022/03/17 05:35:32;;;;;;;15.88;9.13;;;-3.40;89.50;;;;;;5073126;28;20032;-89
2022/03/17 05:37:58;;;;;;;16.17;9.45;;;-3.30;89.10;;;;;;5073184;28;20025;-90
2022/03/17 05:40:24;;;;;;;18.02;9.38;;;-3.30;88.40;;;;;;5072932;28;20021;-90
2022/03/17 05:42:55;;;;;;;16.13;8.93;;;-3.30;88.80;;;;;;5073148;28;20024;-90
2022/03/17 05:45:22;;;;;;;12.93;8.43;;;-3.30;88.00;;;;;;5073117;28;20017;-90
2022/03/17 05:47:50;;;;;;;15.35;9.52;;;-3.30;87.60;;;;;;5073345;28;20058;-89
2022/03/17 05:50:18;;;;;;;14.95;8.90;;;-3.30;87.50;;;;;;5072785;28;20024;-90
2022/03/17 05:52:44;;;;;;;14.18;8.93;;;-3.20;86.70;;;;;;5073170;28;20025;-89
2022/03/17 05:55:15;;;;;;;16.85;8.98;;;-3.20;87.40;;;;;;5074287;28;20044;-89
2022/03/17 05:57:45;;;;;;;16.45;8.98;;;-3.10;86.90;;;;;;5073289;28;20020;-89
2022/03/17 06:00:13;;;;;;;14.27;8.63;;;-3.10;86.70;;;;;;5073011;28;20021;-90
2022/03/17 06:02:39;;;;;;;15.30;9.00;;;-3.10;86.40;;;;;;5072990;28;20027;-91
2022/03/17 06:05:06;;;;;;;16.67;8.95;;;-3.10;86.00;;;;;;5073140;28;20025;-91
2022/03/17 06:07:38;;;;;;;14.10;8.05;;;-3.00;86.30;;;;;;5072812;28;20070;-90
2022/03/17 06:10:06;;;;;;;14.75;8.48;;;-2.90;86.20;;;;;;5072504;28;20044;-91
2022/03/17 06:12:32;;;;;;;15.85;7.55;;;-2.90;85.90;;;;;;5072625;28;20029;-89
2022/03/17 06:14:58;;;;;;;12.25;7.82;;;-2.80;84.00;;;;;;5072997;28;20031;-90
2022/03/17 06:17:43;;;;;;;14.45;8.77;;;-2.70;84.10;;;;;;5072721;28;20352;-90
2022/03/17 06:20:13;;;;;;;12.75;8.07;;;-2.70;83.40;;;;;;5072605;28;20029;-90
2022/03/17 06:22:40;;;;;;;12.77;7.80;;;-2.80;83.20;;;;;;5074565;28;20082;-90
2022/03/17 06:25:07;;;;;;;13.82;7.78;;;-2.80;82.20;;;;;;5076448;28;20037;-90
2022/03/17 06:27:34;;;;;;;13.82;8.73;;;-2.70;82.60;;;;;;5075838;28;20054;-90
2022/03/17 06:30:05;;;;;;;10.23;6.82;;;-2.70;82.70;;;;;;5076387;28;20029;-90
2022/03/17 06:32:31;;;;;;;13.00;7.15;;;-2.60;82.90;;;;;;5076559;28;20429;-91
2022/03/17 06:34:56;;;;;;;13.98;7.80;;;-2.50;82.10;;;;;;5076132;28;20051;-89
2022/03/17 06:37:22;;;;;;;14.52;7.55;;;-2.50;80.30;;;;;;5076324;28;20016;-90
2022/03/17 06:39:48;;;;;;;11.90;6.05;;;-2.40;81.10;;;;;;5076163;28;20120;-91
2022/03/17 06:42:13;;;;;;;11.57;6.28;;;-2.40;79.00;;;;;;5076071;28;20060;-90
2022/03/17 06:44:39;;;;;;;34.10;15.27;;;-2.30;78.40;;;;;;5075904;28;20031;-90
2022/03/17 06:47:05;;;;;;;16.02;8.35;;;-2.30;78.10;;;;;;5075936;28;20032;-89
2022/03/17 06:49:30;;;;;;;11.68;6.68;;;-2.30;77.60;;;;;;5075790;28;20061;-91
2022/03/17 06:51:56;;;;;;;12.40;6.88;;;-2.30;78.00;;;;;;5076021;28;20037;-90
2022/03/17 06:54:22;;;;;;;15.75;5.70;;;-2.20;77.90;;;;;;5076072;28;20060;-91
2022/03/17 06:56:47;;;;;;;13.13;7.05;;;-2.20;77.90;;;;;;5075830;28;20021;-89
2022/03/17 06:59:13;;;;;;;12.50;7.00;;;-2.10;76.20;;;;;;5075797;28;20024;-91
2022/03/17 07:01:39;;;;;;;13.15;6.57;;;-2.00;76.10;;;;;;5075711;28;20422;-92
2022/03/17 07:04:04;;;;;;;11.75;6.07;;;-2.10;75.40;;;;;;5075571;28;20079;-91
2022/03/17 07:06:30;;;;;;;11.88;6.47;;;-2.00;76.40;;;;;;5075627;28;20016;-91
2022/03/17 07:08:55;;;;;;;10.15;5.70;;;-2.00;75.70;;;;;;5075301;28;20167;-91
2022/03/17 07:11:22;;;;;;;9.68;6.55;;;-2.00;76.10;;;;;;5075750;28;20036;-91
2022/03/17 07:13:47;;;;;;;10.32;6.00;;;-1.90;75.50;;;;;;5075648;28;20020;-90
2022/03/17 07:16:13;;;;;;;12.68;6.95;;;-1.90;75.50;;;;;;5075501;28;20027;-91
2022/03/17 07:18:39;;;;;;;8.88;5.57;;;-1.90;75.40;;;;;;5075527;28;20031;-92
2022/03/17 07:21:04;;;;;;;11.18;5.70;;;-1.90;74.00;;;;;;5075239;28;20032;-91
2022/03/17 07:23:31;;;;;;;11.18;7.20;;;-1.90;73.80;;;;;;5075277;28;20029;-91
2022/03/17 07:25:57;;;;;;;13.43;6.28;;;-1.90;74.70;;;;;;5075294;28;20035;-92
2022/03/17 07:28:23;;;;;;;11.43;6.82;;;-1.90;74.30;;;;;;5058342;28;20028;-90
2022/03/17 07:30:48;;;;;;;9.95;6.43;;;-1.80;73.60;;;;;;5075481;28;20367;-91
2022/03/17 07:33:14;;;;;;;11.05;6.78;;;-1.80;72.70;;;;;;5075228;28;20027;-90
2022/03/17 07:35:40;;;;;;;18.85;9.60;;;-1.80;73.50;;;;;;5074830;28;20031;-91
2022/03/17 07:38:06;;;;;;;13.32;7.15;;;-1.70;73.30;;;;;;5075055;28;20371;-91
2022/03/17 07:40:32;;;;;;;11.80;6.60;;;-1.70;74.60;;;;;;5074945;28;20029;-93
2022/03/17 07:43:00;;;;;;;8.80;6.40;;;-1.70;74.50;;;;;;5075024;28;20482;-91
2022/03/17 07:45:26;;;;;;;11.50;6.40;;;-1.60;74.00;;;;;;5075041;28;20024;-90
2022/03/17 07:47:52;;;;;;;11.27;7.13;;;-1.60;73.00;;;;;;5074997;28;20017;-91
2022/03/17 07:50:18;;;;;;;10.63;6.00;;;-1.60;72.00;;;;;;5074895;28;20078;-92
2022/03/17 07:52:44;;;;;;;17.05;7.43;;;-1.50;72.40;;;;;;5074947;28;20024;-91
2022/03/17 07:55:10;;;;;;;16.92;6.68;;;-1.60;71.20;;;;;;5058387;28;20028;-90
2022/03/17 07:57:36;;;;;;;12.82;6.70;;;-1.50;72.20;;;;;;5074594;28;20052;-91
2022/03/17 08:00:07;;;;;;;12.30;8.18;;;-1.50;71.20;;;;;;5074585;28;20021;-88
2022/03/17 08:02:33;;;;;;;40.40;20.67;;;-1.40;70.70;;;;;;5074420;28;20032;-91
2022/03/17 08:05:01;;;;;;;14.52;8.18;;;-1.40;72.10;;;;;;5074681;28;20028;-90
2022/03/17 08:07:28;;;;;;;9.88;6.72;;;-1.30;71.20;;;;;;5074432;28;20501;-92
2022/03/17 08:09:54;;;;;;;31.67;9.48;;;-1.30;71.20;;;;;;5057878;28;20053;-92
2022/03/17 08:12:19;;;;;;;21.55;11.70;;;-1.30;70.30;;;;;;5074391;28;20028;-92
2022/03/17 08:14:45;;;;;;;16.10;7.60;;;-1.30;71.40;;;;;;5074329;28;20105;-90
2022/03/17 08:17:10;;;;;;;11.65;6.47;;;-1.30;70.30;;;;;;5074260;28;20069;-90
2022/03/17 08:19:36;;;;;;;13.63;7.40;;;-1.30;70.10;;;;;;5074010;28;20441;-91
2022/03/17 08:22:02;;;;;;;19.20;9.55;;;-1.30;70.50;;;;;;5074069;28;20035;-90
2022/03/17 08:24:27;;;;;;;12.50;6.20;;;-1.20;71.50;;;;;;5074352;28;20025;-90
2022/03/17 08:26:55;;;;;;;29.92;13.57;;;-1.30;70.20;;;;;;5074444;28;20020;-91
2022/03/17 08:29:21;;;;;;;37.17;14.52;;;-1.20;70.90;;;;;;5074115;28;20147;-91
2022/03/17 08:31:46;;;;;;;20.20;9.20;;;-1.10;71.00;;;;;;5074250;28;20483;-91
2022/03/17 08:34:13;;;;;;;14.55;7.80;;;-1.10;70.00;;;;;;5074362;28;20022;-92
2022/03/17 08:36:39;;;;;;;17.15;9.18;;;-1.00;69.70;;;;;;5073815;28;20013;-91
2022/03/17 08:39:05;;;;;;;9.40;5.55;;;-1.00;71.10;;;;;;5073923;28;20513;-89
2022/03/17 08:41:31;;;;;;;40.55;17.02;;;-1.00;69.70;;;;;;5073810;28;20036;-91
2022/03/17 08:43:56;;;;;;;55.30;23.70;;;-0.90;70.50;;;;;;5073918;28;20031;-91
2022/03/17 08:49:24;;;;;;;10.43;5.43;;;-0.80;70.50;;;;;;5075392;28;20112;-90
2022/03/17 08:51:53;;;;;;;11.30;6.57;;;-0.80;70.80;;;;;;5073497;28;20035;-90
2022/03/17 08:54:22;;;;;;;9.27;5.60;;;-0.70;70.00;;;;;;5074108;28;20032;-91
2022/03/17 08:57:01;;;;;;;7.55;5.05;;;-0.70;69.50;;;;;;5073722;28;20031;-92
2022/03/17 08:59:31;;;;;;;19.27;7.43;;;-0.70;69.10;;;;;;5073817;28;20495;-87
2022/03/17 09:01:58;;;;;;;8.02;5.18;;;-0.70;68.80;;;;;;5073522;28;20119;-91
2022/03/17 09:04:24;;;;;;;9.60;5.00;;;-0.70;68.40;;;;;;5073724;28;20123;-91
2022/03/17 09:06:50;;;;;;;10.45;5.07;;;-0.70;68.00;;;;;;5073631;28;20116;-91
2022/03/17 09:09:16;;;;;;;10.10;5.00;;;-0.60;69.10;;;;;;5073254;28;20135;-92
2022/03/17 09:11:41;;;;;;;75.78;27.17;;;-0.60;69.00;;;;;;5073433;28;20117;-92
2022/03/17 09:14:08;;;;;;;11.15;5.00;;;-0.50;69.00;;;;;;5073367;28;20422;-92
2022/03/17 09:16:34;;;;;;;10.82;4.40;;;-0.40;68.00;;;;;;5073904;28;20028;-90
2022/03/17 09:18:59;;;;;;;10.55;5.00;;;-0.40;67.30;;;;;;5074016;28;20375;-92
2022/03/17 09:21:27;;;;;;;16.95;6.78;;;-0.40;68.20;;;;;;5073584;28;20032;-92
2022/03/17 09:23:54;;;;;;;29.92;11.88;;;-0.30;68.30;;;;;;5073115;28;20021;-92
2022/03/17 09:26:20;;;;;;;14.13;5.45;;;-0.20;68.00;;;;;;5073028;28;20024;-92
2022/03/17 09:28:45;;;;;;;26.98;11.30;;;-0.20;68.00;;;;;;5073052;28;20472;-93
2022/03/17 09:31:11;;;;;;;16.80;6.88;;;-0.20;68.70;;;;;;5073192;28;20044;-92
2022/03/17 09:33:37;;;;;;;8.30;5.18;;;-0.20;67.80;;;;;;5073208;28;20032;-91
2022/03/17 09:36:02;;;;;;;12.40;5.65;;;-0.20;67.50;;;;;;5073383;28;20024;-93
2022/03/17 09:38:28;;;;;;;12.80;4.75;;;-0.10;67.30;;;;;;5073164;28;20032;-92
2022/03/17 09:40:55;;;;;;;7.78;4.88;;;-0.10;67.50;;;;;;5073277;28;20029;-93
2022/03/17 09:43:28;;;;;;;10.25;5.10;;;-0.10;66.90;;;;;;5073034;28;20032;-92
2022/03/17 09:45:55;;;;;;;8.52;4.80;;;-0.10;67.40;;;;;;5073975;28;20024;-92
2022/03/17 09:48:23;;;;;;;11.52;5.45;;;0.00;67.50;;;;;;5073077;28;20024;-93
2022/03/17 09:50:58;;;;;;;8.20;6.05;;;0.00;67.90;;;;;;5073152;28;20522;-92
2022/03/17 09:53:24;;;;;;;11.38;6.63;;;0.10;67.90;;;;;;5072873;28;20376;-93
2022/03/17 09:55:51;;;;;;;8.40;4.90;;;0.10;67.50;;;;;;5073048;28;20028;-92
2022/03/17 09:58:19;;;;;;;10.35;5.28;;;0.10;67.20;;;;;;5076436;28;20482;-92
2022/03/17 10:00:48;;;;;;;12.35;6.50;;;0.10;68.00;;;;;;5076965;28;20070;-92
2022/03/17 10:03:17;;;;;;;10.90;6.32;;;0.20;67.80;;;;;;5076984;28;20024;-93
2022/03/17 10:05:48;;;;;;;11.90;6.03;;;0.20;67.40;;;;;;5076774;28;20028;-93
2022/03/17 10:08:16;;;;;;;17.42;6.93;;;0.30;67.10;;;;;;5079203;28;20059;-90
2022/03/17 10:10:43;;;;;;;10.60;6.00;;;0.30;66.80;;;;;;5080218;28;20115;-90
2022/03/17 10:13:14;;;;;;;13.32;6.28;;;0.40;66.80;;;;;;5080119;28;20051;-93
2022/03/17 10:15:40;;;;;;;14.43;6.57;;;0.30;67.00;;;;;;5080145;28;20024;-94
2022/03/17 10:18:19;;;;;;;11.00;4.85;;;0.30;67.10;;;;;;5079938;28;20023;-92
2022/03/17 10:20:46;;;;;;;10.10;4.45;;;0.40;66.60;;;;;;5080225;28;20024;-93
2022/03/17 10:23:11;;;;;;;8.32;4.80;;;0.40;67.20;;;;;;5079823;28;20078;-91
2022/03/17 10:25:37;;;;;;;7.65;4.55;;;0.40;68.60;;;;;;5079989;28;20020;-94
2022/03/17 10:28:03;;;;;;;8.98;5.03;;;0.50;69.40;;;;;;5079707;28;20020;-91
2022/03/17 10:30:35;;;;;;;6.57;4.47;;;0.50;67.60;;;;;;5079958;28;20020;-93
2022/03/17 10:33:11;;;;;;;8.77;5.65;;;0.50;66.40;;;;;;5079922;28;20024;-91
2022/03/17 10:35:38;;;;;;;7.38;5.20;;;0.50;66.50;;;;;;5079769;28;20546;-93
2022/03/17 10:38:22;;;;;;;8.07;5.30;;;0.50;66.90;;;;;;5079713;28;20090;-90
2022/03/17 10:41:11;;;;;;;10.90;5.53;;;0.50;66.10;;;;;;5079713;28;20043;-92
2022/03/17 10:43:38;;;;;;;7.05;4.55;;;0.50;67.90;;;;;;5079870;28;20024;-92
2022/03/17 10:46:03;;;;;;;6.90;4.50;;;0.60;68.20;;;;;;5079490;28;20020;-90
2022/03/17 10:48:29;;;;;;;10.35;5.82;;;0.60;67.10;;;;;;5079726;28;20078;-93
2022/03/17 10:50:55;;;;;;;9.10;5.57;;;0.60;68.20;;;;;;5079226;28;20428;-90
2022/03/17 10:53:27;;;;;;;10.88;5.57;;;0.60;67.50;;;;;;5079316;28;20032;-89
2022/03/17 10:56:08;;;;;;;12.25;6.70;;;0.70;67.90;;;;;;5079192;28;20103;-93
2022/03/17 10:58:42;;;;;;;12.90;6.10;;;0.70;67.50;;;;;;5079208;28;20044;-92
2022/03/17 11:01:08;;;;;;;8.80;5.20;;;0.80;66.90;;;;;;5078998;28;20034;-91
2022/03/17 11:03:34;;;;;;;6.53;4.85;;;0.80;66.80;;;;;;5079260;28;20020;-92
2022/03/17 11:05:59;;;;;;;12.60;5.55;;;0.80;66.20;;;;;;5079228;28;20035;-92
2022/03/17 11:08:25;;;;;;;12.93;5.10;;;0.80;67.50;;;;;;5078210;28;20020;-91
2022/03/17 11:10:51;;;;;;;16.88;5.32;;;0.80;66.70;;;;;;5078785;28;20458;-91
2022/03/17 11:13:17;;;;;;;7.75;5.20;;;0.80;66.40;;;;;;5079056;28;20027;-90
2022/03/17 11:16:09;;;;;;;14.60;7.90;;;0.80;67.10;;;;;;5078972;28;20024;-92
2022/03/17 11:18:37;;;;;;;12.60;6.20;;;0.80;67.30;;;;;;5078800;28;20016;-90
2022/03/17 11:21:19;;;;;;;8.85;4.78;;;0.90;68.30;;;;;;5078785;28;20032;-91
2022/03/17 11:23:56;;;;;;;10.05;5.75;;;0.90;67.70;;;;;;5078973;28;20035;-89
2022/03/17 11:26:44;;;;;;;10.43;5.22;;;1.00;68.20;;;;;;5078865;28;20032;-92
2022/03/17 11:29:12;;;;;;;20.45;8.95;;;1.20;68.60;;;;;;5078554;28;20024;-90
2022/03/17 11:31:56;;;;;;;15.35;7.22;;;1.20;67.80;;;;;;5078807;28;20056;-90
2022/03/17 11:34:42;;;;;;;23.25;9.02;;;1.20;66.60;;;;;;5078763;28;20047;-91
2022/03/17 11:37:26;;;;;;;10.25;4.93;;;1.10;66.50;;;;;;5078580;28;20020;-91
2022/03/17 11:39:58;;;;;;;16.75;6.38;;;1.10;67.30;;;;;;5078749;28;20047;-89
2022/03/17 11:42:47;;;;;;;9.73;5.35;;;1.20;67.60;;;;;;5096409;28;20031;-90
2022/03/17 11:45:13;;;;;;;10.15;5.78;;;1.20;67.90;;;;;;5078262;28;20386;-90
2022/03/17 11:47:44;;;;;;;8.88;5.47;;;1.30;67.10;;;;;;5078660;28;20024;-91
2022/03/17 11:50:38;;;;;;;7.97;5.13;;;1.30;66.90;;;;;;5078103;28;20127;-90
2022/03/17 11:53:04;;;;;;;7.72;5.43;;;1.30;68.10;;;;;;5078291;28;20024;-92
2022/03/17 11:55:53;;;;;;;11.60;6.95;;;1.50;69.00;;;;;;5078297;28;20044;-91
2022/03/17 11:58:34;;;;;;;14.02;6.90;;;1.50;68.20;;;;;;5077879;28;20416;-92
2022/03/17 12:01:09;;;;;;;15.32;8.20;;;1.50;67.20;;;;;;5096094;28;20096;-91
2022/03/17 12:03:42;;;;;;;14.65;7.38;;;1.50;67.60;;;;;;5078098;28;20111;-89
2022/03/17 12:06:15;;;;;;;8.30;5.63;;;1.50;67.30;;;;;;5077748;28;20055;-90
2022/03/17 12:08:48;;;;;;;20.35;8.52;;;1.40;67.30;;;;;;5077853;28;20123;-92
2022/03/17 12:11:16;;;;;;;15.13;7.60;;;1.40;68.00;;;;;;5077698;28;20067;-91
2022/03/17 12:13:42;;;;;;;15.13;6.40;;;1.50;68.60;;;;;;5078254;28;20024;-88
2022/03/17 12:16:12;;;;;;;14.77;8.32;;;1.50;69.00;;;;;;5077489;28;20093;-91
2022/03/17 12:19:00;;;;;;;12.00;6.40;;;1.60;67.80;;;;;;5077872;28;20122;-91
2022/03/17 12:22:03;;;;;;;22.17;7.65;;;1.60;66.90;;;;;;5077271;28;20095;-91
2022/03/17 12:24:51;;;;;;;9.93;5.60;;;1.50;66.40;;;;;;5095641;28;20047;-91
2022/03/17 12:27:29;;;;;;;8.88;5.53;;;1.40;67.10;;;;;;5077399;28;20501;-90
2022/03/17 12:30:00;;;;;;;7.95;5.50;;;1.60;66.60;;;;;;5077474;28;20390;-90
2022/03/17 12:32:34;;;;;;;10.52;6.18;;;1.70;66.90;;;;;;5077466;28;20359;-92
2022/03/17 12:35:01;;;;;;;13.20;7.65;;;1.80;67.90;;;;;;5077166;28;20020;-90
2022/03/17 12:37:31;;;;;;;21.65;8.45;;;1.80;67.50;;;;;;5077433;28;20064;-90
2022/03/17 12:39:58;;;;;;;;;;;1.80;66.70;;;;;;5077680;28;20028;-93
2022/03/17 12:42:31;;;;;;;21.85;9.23;;;1.90;66.00;;;;;;5077122;28;19904;-91
2022/03/17 12:45:06;;;;;;;8.60;6.03;;;2.00;66.70;;;;;;5077095;28;20077;-91
2022/03/17 12:47:34;;;;;;;10.73;6.25;;;2.10;67.20;;;;;;5077274;28;20477;-92
2022/03/17 12:50:06;;;;;;;13.98;7.13;;;2.00;66.80;;;;;;5076882;28;20081;-91
2022/03/17 12:52:32;;;;;;;8.48;6.70;;;2.00;66.40;;;;;;5077059;28;20036;-90
2022/03/17 12:55:00;;;;;;;10.05;6.50;;;1.90;66.40;;;;;;5077035;28;20030;-92
2022/03/17 12:57:28;;;;;;;8.85;6.20;;;1.90;66.90;;;;;;5077226;28;20028;-90